createdAt,value
2018-01-10T00:01:04.861Z,13.88
2018-01-10T00:03:33.363Z,13.57
2018-01-10T00:06:01.712Z,13.10
2018-01-10T00:08:30.023Z,13.75
2018-01-10T00:11:00.426Z,14.50
2018-01-10T00:13:28.712Z,14.77
2018-01-10T00:15:57.032Z,14.00
2018-01-10T00:18:27.004Z,13.55
2018-01-10T00:20:55.436Z,12.65
2018-01-10T00:23:23.700Z,13.10
2018-01-10T00:25:52.688Z,15.25
2018-01-10T00:28:21.312Z,15.18
2018-01-10T00:30:49.585Z,14.85
2018-01-10T00:33:17.892Z,16.15
2018-01-10T00:35:46.565Z,15.38
2018-01-10T00:38:15.280Z,14.40
2018-01-10T00:40:43.540Z,14.45
2018-01-10T00:43:12.517Z,14.65
2018-01-10T00:45:40.784Z,14.32
2018-01-10T00:48:09.456Z,14.90
2018-01-10T00:50:38.249Z,15.10
2018-01-10T00:53:06.686Z,15.20
2018-01-10T00:55:35.715Z,14.57
2018-01-10T00:58:04.649Z,15.32
2018-01-10T01:00:32.912Z,15.40
2018-01-10T01:03:01.366Z,15.15
2018-01-10T01:05:30.172Z,15.55
2018-01-10T01:07:58.716Z,14.87
2018-01-10T01:10:26.984Z,14.98
2018-01-10T01:12:55.392Z,13.93
2018-01-10T01:15:23.669Z,14.17
2018-01-10T01:17:52.341Z,16.10
2018-01-10T01:20:20.898Z,16.07
2018-01-10T01:22:49.298Z,15.13
2018-01-10T01:25:18.301Z,15.52
2018-01-10T01:27:47.356Z,14.77
2018-01-10T01:30:15.788Z,16.13
2018-01-10T01:32:44.488Z,15.67
2018-01-10T01:35:12.789Z,14.87
2018-01-10T01:37:41.086Z,15.05
2018-01-10T01:40:09.411Z,14.70
2018-01-10T01:42:37.648Z,14.80
2018-01-10T01:45:05.936Z,14.15
2018-01-10T01:47:35.008Z,14.95
2018-01-10T01:50:03.432Z,15.97
2018-01-10T01:52:32.116Z,15.75
2018-01-10T01:55:00.373Z,15.50
2018-01-10T01:57:29.419Z,16.12
2018-01-10T01:59:57.696Z,14.48
2018-01-10T02:02:26.460Z,15.67
2018-01-10T02:04:54.897Z,16.77
2018-01-10T02:07:23.156Z,15.67
2018-01-10T02:09:52.348Z,16.52
2018-01-10T02:12:20.867Z,15.40
2018-01-10T02:14:49.908Z,13.48
2018-01-10T02:17:18.199Z,14.07
2018-01-10T02:19:46.824Z,14.40
2018-01-10T02:22:15.709Z,15.03
2018-01-10T02:24:45.469Z,14.02
2018-01-10T02:27:14.393Z,17.20
2018-01-10T02:29:42.641Z,15.20
2018-01-10T02:32:11.448Z,14.50
2018-01-10T02:34:40.038Z,15.93
2018-01-10T02:37:08.306Z,16.30
2018-01-10T02:39:37.646Z,16.87
2018-01-10T02:42:06.150Z,15.80
2018-01-10T02:44:35.974Z,16.10
2018-01-10T02:47:04.237Z,14.87
2018-01-10T02:49:33.680Z,17.13
2018-01-10T02:52:02.160Z,18.17
2018-01-10T02:54:30.812Z,15.97
2018-01-10T02:56:59.638Z,15.33
2018-01-10T02:59:28.144Z,15.77
2018-01-10T03:01:56.827Z,15.87
2018-01-10T03:04:25.125Z,15.23
2018-01-10T03:06:54.373Z,16.00
2018-01-10T03:09:22.984Z,16.93
2018-01-10T03:11:51.291Z,17.07
2018-01-10T03:14:19.563Z,17.83
2018-01-10T03:16:47.809Z,15.80
2018-01-10T03:19:16.652Z,16.03
2018-01-10T03:21:44.928Z,14.83
2018-01-10T03:24:13.759Z,16.63
2018-01-10T03:26:42.012Z,14.17
2018-01-10T03:29:10.286Z,13.83
2018-01-10T03:31:38.581Z,14.27
2018-01-10T03:34:07.269Z,14.00
2018-01-10T03:36:35.527Z,14.40
2018-01-10T03:39:04.489Z,14.68
2018-01-10T03:41:34.209Z,15.55
2018-01-10T03:44:02.453Z,13.73
2018-01-10T03:46:30.725Z,14.70
2018-01-10T03:48:58.952Z,13.90
2018-01-10T03:51:27.216Z,14.80
2018-01-10T03:53:56.233Z,14.50
2018-01-10T03:56:24.488Z,14.98
2018-01-10T03:58:52.802Z,15.10
2018-01-10T04:01:21.087Z,14.23
2018-01-10T04:03:49.608Z,14.43
2018-01-10T04:06:18.511Z,13.70
2018-01-10T04:08:46.788Z,13.80
2018-01-10T04:11:15.052Z,15.30
2018-01-10T04:13:44.637Z,14.60
2018-01-10T04:16:12.908Z,14.30
2018-01-10T04:18:41.173Z,13.87
2018-01-10T04:21:09.409Z,13.20
2018-01-10T04:23:37.714Z,13.77
2018-01-10T04:26:06.180Z,13.37
2018-01-10T04:28:34.895Z,15.20
2018-01-10T04:31:04.261Z,14.53
2018-01-10T04:33:34.248Z,16.48
2018-01-10T04:36:03.525Z,15.43
2018-01-10T04:38:31.935Z,14.90
2018-01-10T04:41:01.458Z,14.63
2018-01-10T04:43:30.276Z,15.50
2018-01-10T04:45:59.218Z,14.65
2018-01-10T04:48:27.472Z,15.07
2018-01-10T04:50:56.428Z,16.60
2018-01-10T04:53:24.663Z,15.60
2018-01-10T04:55:53.832Z,14.53
2018-01-10T04:58:22.076Z,15.00
2018-01-10T05:00:50.325Z,14.23
2018-01-10T05:03:18.584Z,17.57
2018-01-10T05:05:48.777Z,16.53
2018-01-10T05:08:17.431Z,16.70
2018-01-10T05:10:45.726Z,17.30
2018-01-10T05:13:14.179Z,15.30
2018-01-10T05:15:42.416Z,15.17
2018-01-10T05:18:10.727Z,15.82
2018-01-10T05:20:39.327Z,16.00
2018-01-10T05:23:07.816Z,16.55
2018-01-10T05:25:36.140Z,15.37
2018-01-10T05:28:04.420Z,14.52
2018-01-10T05:30:32.704Z,16.57
2018-01-10T05:33:01.228Z,15.33
2018-01-10T05:35:29.591Z,17.00
2018-01-10T05:37:58.614Z,16.27
2018-01-10T05:40:27.420Z,15.77
2018-01-10T05:42:55.840Z,14.90
2018-01-10T05:45:24.140Z,15.83
2018-01-10T05:47:52.437Z,14.73
2018-01-10T05:50:20.716Z,17.27
2018-01-10T05:52:49.248Z,16.63
2018-01-10T05:55:17.520Z,15.10
2018-01-10T05:57:46.527Z,15.00
2018-01-10T06:00:14.980Z,15.70
2018-01-10T06:02:43.476Z,15.43
2018-01-10T06:05:12.452Z,15.88
2018-01-10T06:20:45.588Z,17.07
2018-01-10T06:23:13.992Z,16.50
2018-01-10T06:25:42.288Z,18.50
2018-01-10T06:28:10.551Z,17.17
2018-01-10T06:30:39.248Z,16.40
2018-01-10T06:33:07.608Z,17.45
2018-01-10T06:35:35.952Z,17.70
2018-01-10T06:38:04.246Z,16.27
2018-01-10T06:40:32.536Z,17.27
2018-01-10T06:43:00.912Z,15.73
2018-01-10T06:45:29.233Z,16.40
2018-01-10T06:47:57.988Z,17.50
2018-01-10T06:50:26.236Z,14.87
2018-01-10T06:52:54.513Z,17.10
2018-01-10T06:55:23.217Z,15.03
2018-01-10T06:57:52.137Z,15.47
2018-01-10T07:00:20.790Z,15.77
2018-01-10T07:02:49.188Z,17.53
2018-01-10T07:05:17.536Z,16.50
2018-01-10T07:07:45.835Z,15.03
2018-01-10T07:10:14.256Z,15.17
2018-01-10T07:12:43.260Z,15.80
2018-01-10T07:15:12.244Z,17.33
2018-01-10T07:17:40.480Z,17.30
2018-01-10T07:20:08.744Z,17.40
2018-01-10T07:22:37.260Z,16.40
2018-01-10T07:25:05.544Z,16.07
2018-01-10T07:27:33.771Z,17.77
2018-01-10T07:30:02.027Z,16.63
2018-01-10T07:32:30.306Z,16.90
2018-01-10T07:34:58.581Z,14.67
2018-01-10T07:37:26.820Z,16.25
2018-01-10T07:39:55.735Z,16.10
2018-01-10T07:42:24.447Z,16.07
2018-01-10T07:44:52.692Z,17.27
2018-01-10T07:47:22.445Z,18.47
2018-01-10T07:49:50.704Z,16.20
2018-01-10T07:52:19.692Z,16.30
2018-01-10T07:54:48.680Z,16.17
2018-01-10T07:57:16.976Z,18.57
2018-01-10T07:59:45.221Z,16.90
2018-01-10T08:02:13.801Z,16.77
2018-01-10T08:04:42.054Z,17.07
2018-01-10T08:07:10.472Z,16.47
2018-01-10T08:09:38.743Z,17.60
2018-01-10T08:12:07.736Z,17.57
2018-01-10T08:14:36.716Z,16.80
2018-01-10T08:17:06.417Z,15.70
2018-01-10T08:19:34.692Z,16.73
2018-01-10T08:22:02.924Z,16.57
2018-01-10T08:24:31.196Z,16.33
2018-01-10T08:26:59.770Z,17.23
2018-01-10T08:29:28.004Z,16.23
2018-01-10T08:31:56.388Z,16.60
2018-01-10T08:34:26.220Z,16.50
2018-01-10T08:36:55.243Z,16.60
2018-01-10T08:39:23.634Z,16.57
2018-01-10T08:41:52.690Z,16.47
2018-01-10T08:44:21.763Z,15.40
2018-01-10T08:46:50.753Z,17.13
2018-01-10T08:49:19.037Z,18.00
2018-01-10T08:51:47.444Z,16.60
2018-01-10T08:54:16.792Z,15.80
2018-01-10T08:56:45.040Z,16.53
2018-01-10T08:59:13.417Z,15.97
2018-01-10T09:01:41.663Z,16.00
2018-01-10T09:04:09.917Z,16.17
2018-01-10T09:06:38.338Z,16.90
2018-01-10T09:09:07.332Z,16.93
2018-01-10T09:11:36.434Z,17.73
2018-01-10T09:14:04.820Z,17.33
2018-01-10T09:16:33.504Z,16.80
2018-01-10T09:19:03.556Z,16.40
2018-01-10T09:21:32.139Z,16.30
2018-01-10T09:24:00.459Z,16.53
2018-01-10T09:26:29.468Z,18.73
2018-01-10T09:28:58.710Z,17.30
2018-01-10T09:31:26.952Z,17.00
2018-01-10T09:33:55.299Z,16.70
2018-01-10T09:36:25.062Z,17.40
2018-01-10T09:38:53.407Z,16.93
2018-01-10T09:41:23.456Z,17.33
2018-01-10T09:43:51.978Z,16.27
2018-01-10T09:46:20.229Z,19.03
2018-01-10T09:48:48.506Z,16.00
2018-01-10T09:51:16.812Z,17.03
2018-01-10T09:53:45.126Z,18.37
2018-01-10T09:56:13.389Z,18.70
2018-01-10T09:58:41.697Z,18.83
2018-01-10T10:01:10.293Z,18.57
2018-01-10T10:03:38.601Z,19.37
2018-01-10T10:06:07.836Z,18.73
2018-01-10T10:08:36.158Z,18.20
2018-01-10T10:11:04.459Z,17.90
2018-01-10T10:13:32.913Z,19.20
2018-01-10T10:16:01.179Z,20.03
2018-01-10T10:18:29.456Z,19.20
2018-01-10T10:20:58.040Z,19.40
2018-01-10T10:23:26.328Z,19.43
2018-01-10T10:25:54.640Z,18.03
2018-01-10T10:28:22.929Z,19.90
2018-01-10T10:30:51.776Z,18.73
2018-01-10T10:33:20.072Z,19.60
2018-01-10T10:35:48.336Z,18.40
2018-01-10T10:38:16.588Z,18.80
2018-01-10T10:40:44.846Z,18.33
2018-01-10T10:43:13.098Z,17.10
2018-01-10T10:45:41.896Z,18.17
2018-01-10T10:48:10.613Z,18.90
2018-01-10T10:50:38.925Z,16.57
2018-01-10T10:53:07.200Z,16.90
2018-01-10T10:55:35.436Z,17.53
2018-01-10T10:58:03.960Z,17.80
2018-01-10T11:00:32.249Z,19.50
2018-01-10T11:03:00.744Z,19.47
2018-01-10T11:05:30.293Z,19.80
2018-01-10T11:07:58.570Z,18.83
2018-01-10T11:10:26.865Z,18.00
2018-01-10T11:12:55.445Z,18.67
2018-01-10T11:15:23.776Z,19.27
2018-01-10T11:17:52.820Z,19.00
2018-01-10T11:20:21.282Z,18.23
2018-01-10T11:22:49.536Z,18.77
2018-01-10T11:25:18.596Z,21.33
2018-01-10T11:27:50.438Z,18.70
2018-01-10T11:30:20.028Z,19.30
2018-01-10T11:32:48.284Z,19.60
2018-01-10T11:35:16.641Z,20.23
2018-01-10T11:37:45.088Z,19.73
2018-01-10T11:40:13.634Z,17.17
2018-01-10T11:42:42.126Z,18.20
2018-01-10T11:45:10.411Z,18.70
2018-01-10T11:47:38.679Z,18.77
2018-01-10T11:50:07.456Z,19.20
2018-01-10T11:52:35.680Z,19.27
2018-01-10T11:55:04.139Z,19.83
2018-01-10T11:57:32.416Z,18.20
2018-01-10T12:00:00.682Z,19.00
2018-01-10T12:02:29.044Z,19.17
2018-01-10T12:04:57.412Z,18.13
2018-01-10T12:07:25.640Z,17.53
2018-01-10T12:09:54.324Z,19.60
2018-01-10T12:12:22.782Z,19.40
2018-01-10T12:14:51.040Z,18.93
2018-01-10T12:17:19.461Z,20.00
2018-01-10T12:19:48.856Z,18.63
2018-01-10T12:22:17.135Z,18.03
2018-01-10T12:24:45.580Z,18.40
2018-01-10T12:27:13.845Z,19.60
2018-01-10T12:29:42.875Z,17.70
2018-01-10T12:32:11.548Z,19.83
2018-01-10T12:34:39.856Z,19.70
2018-01-10T12:37:08.128Z,20.50
2018-01-10T12:39:36.606Z,19.23
2018-01-10T12:42:04.986Z,20.23
2018-01-10T12:44:33.323Z,18.93
2018-01-10T12:47:02.368Z,19.83
2018-01-10T12:49:30.644Z,18.37
2018-01-10T12:51:59.152Z,20.90
2018-01-10T12:54:27.407Z,18.53
2018-01-10T12:56:56.200Z,19.20
2018-01-10T12:59:24.764Z,18.27
2018-01-10T13:01:53.790Z,18.87
2018-01-10T13:04:22.084Z,20.30
2018-01-10T13:06:51.077Z,19.10
2018-01-10T13:09:20.068Z,20.17
2018-01-10T13:11:48.328Z,18.43
2018-01-10T13:14:16.564Z,18.03
2018-01-10T13:16:44.809Z,18.60
2018-01-10T13:19:13.903Z,19.20
2018-01-10T13:21:42.972Z,19.47
2018-01-10T13:24:11.525Z,19.40
2018-01-10T13:26:40.609Z,19.57
2018-01-10T13:29:08.952Z,18.37
2018-01-10T13:31:37.392Z,20.20
2018-01-10T13:34:05.716Z,18.90
2018-01-10T13:36:34.708Z,19.70
2018-01-10T13:39:05.052Z,19.60
2018-01-10T13:41:33.333Z,21.50
2018-01-10T13:44:01.636Z,18.90
2018-01-10T13:46:29.920Z,20.30
2018-01-10T13:48:58.840Z,19.27
2018-01-10T13:51:27.288Z,18.30
2018-01-10T13:53:55.532Z,19.00
2018-01-10T13:56:24.068Z,19.40
2018-01-10T13:58:52.973Z,21.13
2018-01-10T14:01:21.228Z,19.07
2018-01-10T14:03:49.514Z,19.37
2018-01-10T14:06:18.005Z,19.73
2018-01-10T14:08:47.104Z,18.67
2018-01-10T14:11:15.388Z,18.03
2018-01-10T14:13:44.360Z,20.67
2018-01-10T14:16:12.608Z,20.40
2018-01-10T14:18:41.225Z,17.47
2018-01-10T14:21:09.516Z,19.40
2018-01-10T14:23:38.777Z,18.97
2018-01-10T14:26:07.031Z,19.20
2018-01-10T14:28:35.264Z,19.73
2018-01-10T14:31:03.652Z,19.23
2018-01-10T14:33:32.740Z,18.97
2018-01-10T14:36:01.389Z,19.33
2018-01-10T14:38:29.677Z,20.30
2018-01-10T14:40:57.940Z,18.17
2018-01-10T14:43:26.222Z,19.90
2018-01-10T14:45:54.561Z,20.20
2018-01-10T14:48:22.844Z,19.90
2018-01-10T14:50:51.237Z,19.73
2018-01-10T14:53:19.844Z,18.80
2018-01-10T14:55:48.088Z,17.67
2018-01-10T14:58:17.080Z,19.37
2018-01-10T15:00:45.320Z,20.70
2018-01-10T15:03:13.640Z,18.40
2018-01-10T15:05:41.892Z,19.37
2018-01-10T15:08:10.968Z,17.27
2018-01-10T15:10:39.997Z,19.33
2018-01-10T15:13:08.338Z,18.33
2018-01-10T15:15:37.051Z,18.90
2018-01-10T15:18:05.404Z,19.00
2018-01-10T15:20:33.684Z,19.63
2018-01-10T15:23:01.952Z,20.40
2018-01-10T15:25:30.232Z,20.93
2018-01-10T15:27:58.520Z,21.77
2018-01-10T15:30:26.756Z,20.60
2018-01-10T15:32:55.018Z,20.63
2018-01-10T15:35:23.560Z,19.43
2018-01-10T15:37:52.557Z,19.57
2018-01-10T15:40:21.565Z,20.27
2018-01-10T15:42:50.240Z,21.43
2018-01-10T15:45:19.328Z,21.97
2018-01-10T15:47:48.336Z,21.43
2018-01-10T15:50:17.348Z,21.33
2018-01-10T15:52:45.598Z,24.20
2018-01-10T15:55:14.576Z,23.27
2018-01-10T15:57:43.149Z,21.10
2018-01-10T16:00:11.432Z,21.83
2018-01-10T16:02:39.667Z,19.13
2018-01-10T16:05:08.292Z,19.30
2018-01-10T16:20:23.872Z,23.27
2018-01-10T16:22:52.149Z,24.00
2018-01-10T16:25:20.526Z,22.10
2018-01-10T16:27:49.104Z,20.67
2018-01-10T16:30:17.540Z,19.93
2018-01-10T16:32:45.934Z,19.77
2018-01-10T16:35:14.771Z,20.70
2018-01-10T16:37:43.472Z,19.37
2018-01-10T16:40:11.756Z,22.77
2018-01-10T16:42:39.986Z,19.50
2018-01-10T16:45:08.637Z,20.77
2018-01-10T16:47:37.012Z,20.70
2018-01-10T16:50:05.444Z,21.10
2018-01-10T16:52:33.782Z,20.43
2018-01-10T16:55:01.992Z,20.17
2018-01-10T16:57:30.567Z,22.37
2018-01-10T16:59:59.932Z,22.17
2018-01-10T17:02:28.224Z,20.83
2018-01-10T17:04:56.612Z,22.70
2018-01-10T17:07:24.861Z,20.43
2018-01-10T17:09:53.172Z,22.03
2018-01-10T17:12:21.404Z,20.50
2018-01-10T17:14:50.938Z,20.43
2018-01-10T17:17:19.272Z,19.13
2018-01-10T17:19:47.522Z,19.37
2018-01-10T17:22:16.288Z,20.17
2018-01-10T17:24:44.582Z,19.77
2018-01-10T17:27:12.836Z,20.43
2018-01-10T17:29:41.076Z,21.50
2018-01-10T17:32:09.368Z,20.50
2018-01-10T17:34:37.724Z,20.67
2018-01-10T17:37:06.747Z,21.57
2018-01-10T17:39:35.045Z,18.93
2018-01-10T17:42:03.376Z,22.30
2018-01-10T17:44:32.132Z,21.43
2018-01-10T17:47:01.026Z,20.23
2018-01-10T17:49:29.573Z,21.17
2018-01-10T18:04:44.966Z,22.70
2018-01-10T18:07:13.261Z,20.43
2018-01-10T18:09:41.932Z,21.43
2018-01-10T18:12:10.291Z,23.03
2018-01-10T18:14:38.578Z,20.80
2018-01-10T18:17:06.867Z,21.57
2018-01-10T18:19:35.834Z,21.10
2018-01-10T18:22:04.737Z,22.17
2018-01-10T18:24:33.279Z,21.37
2018-01-10T18:27:01.582Z,21.20
2018-01-10T18:29:29.977Z,20.73
2018-01-10T18:31:58.262Z,20.77
2018-01-10T18:34:26.508Z,20.10
2018-01-10T18:36:55.624Z,20.97
2018-01-10T18:39:24.207Z,20.73
2018-01-10T18:41:52.517Z,21.83
2018-01-10T18:44:20.856Z,21.93
2018-01-10T18:46:49.152Z,19.73
2018-01-10T18:49:17.439Z,20.33
2018-01-10T18:51:45.720Z,19.80
2018-01-10T18:54:14.010Z,21.00
2018-01-10T18:56:43.485Z,20.60
2018-01-10T18:59:12.104Z,21.50
2018-01-10T19:01:41.132Z,20.40
2018-01-10T19:04:09.408Z,21.93
2018-01-10T19:06:37.680Z,20.97
2018-01-10T19:09:05.980Z,22.47
2018-01-10T19:11:35.037Z,22.77
2018-01-10T19:14:03.378Z,20.87
2018-01-10T19:16:32.851Z,20.93
2018-01-10T19:19:02.036Z,20.30
2018-01-10T19:21:30.627Z,19.47
2018-01-10T19:23:58.900Z,20.77
2018-01-10T19:26:27.234Z,20.40
2018-01-10T19:28:55.536Z,20.27
2018-01-10T19:31:24.362Z,22.37
2018-01-10T19:33:52.652Z,20.70
2018-01-10T19:36:20.918Z,20.73
2018-01-10T19:38:49.224Z,19.97
2018-01-10T19:41:18.980Z,20.80
2018-01-10T19:43:47.273Z,20.30
2018-01-10T19:46:15.964Z,21.90
2018-01-10T19:48:44.240Z,20.97
2018-01-10T19:51:12.512Z,21.30
2018-01-10T19:53:40.804Z,19.70
2018-01-10T19:56:09.108Z,22.50
2018-01-10T20:11:39.450Z,22.00
2018-01-10T20:14:08.074Z,20.20
2018-01-10T20:16:36.528Z,19.40
2018-01-10T20:19:05.052Z,19.33
2018-01-10T20:21:33.344Z,19.90
2018-01-10T20:24:01.746Z,19.53
2018-01-10T20:26:30.782Z,18.63
2018-01-10T20:28:59.136Z,20.57
2018-01-10T20:31:27.819Z,17.27
2018-01-10T20:33:56.136Z,17.93
2018-01-10T20:36:24.704Z,17.77
2018-01-10T20:38:52.980Z,18.70
2018-01-10T20:41:22.524Z,19.90
2018-01-10T20:43:50.796Z,18.63
2018-01-10T20:46:19.545Z,18.17
2018-01-10T20:48:47.824Z,19.70
2018-01-10T20:51:16.864Z,18.30
2018-01-10T20:53:45.105Z,18.57
2018-01-10T20:56:13.480Z,18.00
2018-01-10T20:58:41.868Z,18.90
2018-01-10T21:01:10.690Z,19.60
2018-01-10T21:03:40.268Z,21.90
2018-01-10T21:06:08.522Z,21.80
2018-01-10T21:08:36.772Z,21.63
2018-01-10T21:11:05.076Z,21.13
2018-01-10T21:13:33.527Z,18.70
2018-01-10T21:16:02.780Z,21.43
2018-01-10T21:18:31.124Z,20.40
2018-01-10T21:20:59.384Z,21.37
2018-01-10T21:23:27.945Z,21.00
2018-01-10T21:25:59.239Z,21.70
2018-01-10T21:28:27.535Z,19.77
2018-01-10T21:30:55.825Z,20.00
2018-01-10T21:33:24.086Z,19.80
2018-01-10T21:35:52.368Z,19.27
2018-01-10T21:38:20.954Z,19.07
2018-01-10T21:40:49.255Z,20.80
2018-01-10T21:43:18.554Z,18.83
2018-01-10T21:45:46.800Z,18.53
2018-01-10T21:48:15.292Z,19.80
2018-01-10T21:50:44.071Z,20.53
2018-01-10T21:53:12.432Z,19.60
2018-01-10T21:55:40.792Z,19.60
2018-01-10T21:58:09.816Z,20.23
2018-01-10T22:00:38.807Z,20.73
2018-01-10T22:03:07.322Z,19.77
2018-01-10T22:05:35.564Z,21.73
2018-01-10T22:08:03.930Z,21.17
2018-01-10T22:10:32.304Z,19.70
2018-01-10T22:13:00.560Z,20.60
2018-01-10T22:15:30.580Z,21.13
2018-01-10T22:18:00.703Z,19.90
2018-01-10T22:20:29.115Z,19.57
2018-01-10T22:22:57.420Z,18.27
2018-01-10T22:25:26.044Z,20.30
2018-01-10T22:27:54.388Z,19.90
2018-01-10T22:30:22.660Z,22.07
2018-01-10T22:32:51.098Z,22.30
2018-01-10T22:35:19.520Z,21.73
2018-01-10T22:37:47.794Z,20.87
2018-01-10T22:40:16.240Z,22.13
2018-01-10T22:42:44.964Z,23.23
2018-01-10T22:45:13.328Z,22.20
2018-01-10T22:47:41.723Z,20.37
2018-01-10T22:50:10.166Z,20.30
2018-01-10T22:52:38.464Z,22.20
2018-01-10T22:55:06.708Z,22.10
2018-01-10T22:57:35.909Z,22.00
2018-01-10T23:00:05.339Z,22.00
2018-01-10T23:02:33.899Z,20.40
2018-01-10T23:05:03.035Z,21.10
2018-01-10T23:07:31.344Z,19.57
2018-01-10T23:09:59.956Z,21.87
2018-01-10T23:12:28.370Z,20.17
2018-01-10T23:14:56.802Z,20.07
2018-01-10T23:17:25.859Z,19.97
2018-01-10T23:19:54.715Z,20.40
2018-01-10T23:22:24.209Z,21.47
2018-01-10T23:24:52.521Z,20.70
2018-01-10T23:27:21.564Z,20.30
2018-01-10T23:29:49.837Z,20.37
2018-01-10T23:32:19.320Z,21.30
2018-01-10T23:34:47.632Z,20.67
2018-01-10T23:37:17.021Z,20.40
2018-01-10T23:39:45.780Z,18.90
2018-01-10T23:42:14.351Z,20.00
2018-01-10T23:44:42.612Z,18.90
2018-01-10T23:47:10.886Z,18.93
2018-01-10T23:49:40.000Z,19.50
2018-01-10T23:52:08.260Z,19.13
2018-01-10T23:54:36.477Z,19.20
2018-01-10T23:57:04.717Z,19.00
2018-01-10T23:59:33.615Z,18.60
